Time;durP1;ratioP1;P1;durP2;ratioP2;P2;SDS_P1;SDS_P2;PMS_P1;PMS_P2;Temp;Humidity;BMP_temperature;BMP_pressure;BME280_temperature;BME280_humidity;BME280_pressure;Samples;Min_cycle;Max_cycle;Signal;HPM_P1;HPM_P2
2023/02/17 00:00:56;;;;;;;123.97;42.55;;;1.00;99.90;;;;;;5007355;28;20720;-79
2023/02/17 00:03:24;;;;;;;136.07;41.55;;;1.00;99.90;;;;;;4989700;28;20562;-79
2023/02/17 00:05:52;;;;;;;130.20;42.08;;;1.00;99.90;;;;;;5002079;28;20114;-79
2023/02/17 00:08:19;;;;;;;131.63;41.17;;;1.00;99.90;;;;;;5027504;28;20049;-79
2023/02/17 00:10:56;;;;;;;120.93;42.90;;;1.00;99.90;;;;;;5016494;28;20037;-79
2023/02/17 00:13:23;;;;;;;134.13;42.55;;;0.90;99.90;;;;;;4977203;28;20061;-79
2023/02/17 00:15:50;;;;;;;126.47;39.92;;;0.90;99.90;;;;;;5025910;28;20712;-79
2023/02/17 00:18:18;;;;;;;134.02;44.58;;;0.90;99.90;;;;;;4999075;28;20759;-79
2023/02/17 00:20:45;;;;;;;134.23;45.35;;;0.90;99.90;;;;;;5005018;28;20049;-79
2023/02/17 00:23:12;;;;;;;143.98;46.00;;;0.90;99.90;;;;;;5016766;28;20049;-79
2023/02/17 00:25:39;;;;;;;136.88;44.15;;;0.90;99.90;;;;;;5037606;28;20713;-79
2023/02/17 00:28:06;;;;;;;150.00;46.50;;;0.90;99.90;;;;;;5014610;28;20822;-79
2023/02/17 00:30:33;;;;;;;136.82;45.55;;;0.80;99.90;;;;;;5021794;28;20106;-79
2023/02/17 00:33:01;;;;;;;137.82;45.33;;;0.80;99.90;;;;;;5017100;28;20458;-79
2023/02/17 00:35:28;;;;;;;139.30;48.58;;;0.80;99.90;;;;;;5025842;28;20045;-79
2023/02/17 00:37:55;;;;;;;153.18;48.28;;;0.80;99.90;;;;;;4977885;28;20056;-79
2023/02/17 00:40:22;;;;;;;137.05;47.95;;;0.80;99.90;;;;;;5011531;28;20060;-79
2023/02/17 00:42:49;;;;;;;147.93;47.08;;;0.80;99.90;;;;;;5011170;28;20124;-79
2023/02/17 00:45:17;;;;;;;145.07;47.42;;;0.70;99.90;;;;;;4994737;28;20699;-79
2023/02/17 00:47:44;;;;;;;149.25;47.15;;;0.70;99.90;;;;;;5012573;28;20052;-79
2023/02/17 00:50:11;;;;;;;144.20;48.05;;;0.70;99.90;;;;;;5008003;28;20041;-79
2023/02/17 00:52:38;;;;;;;145.85;46.83;;;0.70;99.90;;;;;;5011601;28;20415;-79
2023/02/17 00:55:06;;;;;;;143.65;44.80;;;0.70;99.90;;;;;;4997122;28;20052;-79
2023/02/17 00:57:35;;;;;;;145.50;45.55;;;0.80;99.90;;;;;;5026333;28;20118;-79
2023/02/17 01:00:03;;;;;;;148.77;46.65;;;0.80;99.90;;;;;;4995808;28;20093;-79
2023/02/17 01:02:32;;;;;;;137.18;44.58;;;0.80;99.90;;;;;;5005490;28;20184;-79
2023/02/17 01:04:59;;;;;;;155.50;44.08;;;0.70;99.90;;;;;;5010046;28;20049;-79
2023/02/17 01:07:26;;;;;;;146.18;45.10;;;0.70;99.90;;;;;;5024593;28;20038;-79
2023/02/17 01:09:54;;;;;;;143.27;41.83;;;0.70;99.90;;;;;;4994563;28;21225;-79
2023/02/17 01:12:21;;;;;;;136.63;43.70;;;0.70;99.90;;;;;;5009815;28;20048;-80
2023/02/17 01:14:50;;;;;;;146.07;42.60;;;0.70;99.90;;;;;;4994906;28;20168;-79
2023/02/17 01:17:18;;;;;;;130.93;41.83;;;0.80;99.90;;;;;;5013001;28;20700;-79
2023/02/17 01:19:45;;;;;;;140.18;43.90;;;0.80;99.90;;;;;;5012682;28;20041;-79
2023/02/17 01:22:12;;;;;;;126.25;41.30;;;0.80;99.90;;;;;;5011645;28;20044;-79
2023/02/17 01:24:39;;;;;;;132.88;40.88;;;0.70;99.90;;;;;;5016383;28;20155;-79
2023/02/17 01:27:07;;;;;;;135.00;42.65;;;0.80;99.90;;;;;;5001122;28;22499;-79
2023/02/17 01:29:34;;;;;;;135.63;43.95;;;0.80;99.90;;;;;;5000484;28;20087;-79
2023/02/17 01:32:02;;;;;;;144.45;46.53;;;0.80;99.90;;;;;;4991250;28;20084;-79
2023/02/17 01:34:29;;;;;;;148.50;42.50;;;0.80;99.90;;;;;;4998193;28;20037;-79
2023/02/17 01:36:58;;;;;;;127.43;42.47;;;0.70;99.90;;;;;;5010704;28;20041;-79
2023/02/17 01:39:25;;;;;;;129.20;41.40;;;0.70;99.90;;;;;;5014763;28;20056;-79
2023/02/17 01:41:52;;;;;;;132.32;42.95;;;0.70;99.90;;;;;;4991766;28;20037;-79
2023/02/17 01:44:24;;;;;;;125.03;39.17;;;0.70;99.90;;;;;;5008620;28;20053;-79
2023/02/17 01:46:53;;;;;;;125.82;40.40;;;0.70;99.90;;;;;;5012387;28;20049;-79
2023/02/17 01:49:26;;;;;;;126.82;43.90;;;0.70;99.90;;;;;;5006956;28;20053;-80
2023/02/17 01:52:12;;;;;;;122.22;41.22;;;0.80;99.90;;;;;;4971642;28;20053;-80
2023/02/17 01:54:54;;;;;;;114.90;38.75;;;0.80;99.90;;;;;;4992037;28;20520;-79
2023/02/17 01:57:25;;;;;;;125.10;41.85;;;0.70;99.90;;;;;;4976812;28;20049;-79
2023/02/17 01:59:53;;;;;;;121.00;39.33;;;0.80;99.90;;;;;;5001895;28;20064;-79
2023/02/17 02:02:21;;;;;;;112.22;39.75;;;0.70;99.90;;;;;;4984455;28;20500;-79
2023/02/17 02:04:52;;;;;;;116.00;41.45;;;0.80;99.90;;;;;;4981409;28;20080;-79
2023/02/17 02:07:31;;;;;;;124.47;39.67;;;0.80;99.90;;;;;;4975488;28;20175;-79
2023/02/17 02:09:58;;;;;;;126.30;38.45;;;0.70;99.90;;;;;;5004015;28;20049;-79
2023/02/17 02:12:32;;;;;;;118.40;40.40;;;0.70;99.90;;;;;;5003536;28;20625;-79
2023/02/17 02:15:17;;;;;;;121.93;40.22;;;0.70;99.90;;;;;;4971343;28;20902;-79
2023/02/17 02:18:35;;;;;;;124.45;37.45;;;0.70;99.90;;;;;;4995194;28;20053;-79
2023/02/17 02:21:24;;;;;;;113.45;41.17;;;0.70;99.90;;;;;;4961373;28;20056;-79
2023/02/17 02:24:05;;;;;;;122.13;39.08;;;0.70;99.90;;;;;;4991099;28;20050;-79
2023/02/17 02:26:41;;;;;;;114.88;39.05;;;0.60;99.90;;;;;;4988177;28;20053;-80
2023/02/17 02:29:42;;;;;;;135.73;39.40;;;0.60;99.90;;;;;;4989740;28;20198;-79
2023/02/17 02:32:47;;;;;;;118.15;37.42;;;0.60;99.90;;;;;;4990034;28;20716;-80
2023/02/17 02:35:37;;;;;;;113.32;38.47;;;0.60;99.90;;;;;;5011506;28;20050;-79
2023/02/17 02:38:09;;;;;;;110.93;37.65;;;0.50;99.90;;;;;;4975717;28;20050;-79
2023/02/17 02:40:41;;;;;;;114.00;37.67;;;0.50;99.90;;;;;;5018217;28;20064;-79
2023/02/17 02:43:09;;;;;;;104.00;37.88;;;0.50;99.90;;;;;;4979626;28;20052;-79
2023/02/17 02:45:36;;;;;;;107.05;36.85;;;0.50;99.90;;;;;;4996878;28;20552;-79
2023/02/17 02:48:03;;;;;;;121.47;38.20;;;0.50;99.90;;;;;;5007203;28;20053;-79
2023/02/17 02:50:56;;;;;;;123.38;37.40;;;0.50;99.90;;;;;;5010479;28;20049;-79
2023/02/17 02:53:37;;;;;;;114.43;34.67;;;0.50;99.90;;;;;;4992414;28;20055;-79
2023/02/17 02:56:21;;;;;;;108.32;32.20;;;0.50;99.90;;;;;;4997091;28;22324;-79
2023/02/17 02:58:52;;;;;;;104.80;33.30;;;0.40;99.90;;;;;;4985047;28;20193;-79
2023/02/17 03:01:25;;;;;;;102.18;35.15;;;0.40;99.90;;;;;;5010012;28;20060;-80
2023/02/17 03:04:07;;;;;;;105.72;33.20;;;0.40;99.90;;;;;;5013812;28;20898;-79
2023/02/17 03:06:49;;;;;;;100.55;32.58;;;0.40;99.90;;;;;;5005780;28;20189;-79
2023/02/17 03:09:21;;;;;;;90.53;29.73;;;0.50;99.90;;;;;;5009830;28;20078;-80
2023/02/17 03:11:49;;;;;;;99.75;31.50;;;0.40;99.90;;;;;;4983958;28;21056;-79
2023/02/17 03:14:19;;;;;;;87.40;30.48;;;0.50;99.90;;;;;;4993342;28;20052;-79
2023/02/17 03:16:46;;;;;;;103.10;34.35;;;0.40;99.90;;;;;;5021517;28;20053;-79
2023/02/17 03:19:18;;;;;;;95.60;31.40;;;0.40;99.90;;;;;;5017814;28;20626;-79
2023/02/17 03:21:56;;;;;;;92.75;32.33;;;0.50;99.90;;;;;;5000670;28;20053;-79
2023/02/17 03:24:23;;;;;;;93.88;32.03;;;0.40;99.90;;;;;;4998974;28;20049;-79
2023/02/17 03:26:50;;;;;;;93.50;34.40;;;0.40;99.90;;;;;;5026822;28;20045;-79
2023/02/17 03:29:17;;;;;;;100.25;32.88;;;0.40;99.90;;;;;;4995904;28;20172;-79
2023/02/17 03:31:44;;;;;;;98.53;33.00;;;0.40;99.90;;;;;;4995215;28;20819;-79
2023/02/17 03:34:12;;;;;;;100.13;33.00;;;0.50;99.90;;;;;;5012433;28;20052;-79
2023/02/17 03:36:39;;;;;;;97.28;31.23;;;0.40;99.90;;;;;;5011689;28;20059;-79
2023/02/17 03:39:06;;;;;;;101.85;33.28;;;0.40;99.90;;;;;;4997513;28;20803;-79
2023/02/17 03:41:34;;;;;;;95.07;31.35;;;0.40;99.90;;;;;;5009079;28;20124;-79
2023/02/17 03:44:01;;;;;;;103.85;34.90;;;0.40;99.90;;;;;;5014712;28;20057;-79
2023/02/17 03:46:28;;;;;;;109.13;35.33;;;0.40;99.90;;;;;;5009804;28;21439;-79
2023/02/17 03:48:55;;;;;;;91.93;30.02;;;0.40;99.90;;;;;;4993622;28;20516;-79
2023/02/17 03:51:23;;;;;;;90.18;30.92;;;0.40;99.90;;;;;;4990936;28;20057;-79
2023/02/17 03:53:51;;;;;;;96.53;32.40;;;0.40;99.90;;;;;;4991264;28;20074;-79
2023/02/17 03:56:19;;;;;;;94.10;32.58;;;0.40;99.90;;;;;;4993416;28;20047;-79
2023/02/17 03:58:46;;;;;;;98.72;32.75;;;0.30;99.90;;;;;;4986535;28;20599;-79
2023/02/17 04:01:13;;;;;;;90.47;29.52;;;0.30;99.90;;;;;;5012589;28;20408;-79
2023/02/17 04:03:41;;;;;;;100.50;31.75;;;0.30;99.90;;;;;;4998117;28;20140;-79
2023/02/17 04:06:09;;;;;;;91.95;29.42;;;0.30;99.90;;;;;;5001380;28;20052;-79
2023/02/17 04:08:37;;;;;;;91.43;28.67;;;0.30;99.90;;;;;;5014364;28;20791;-79
2023/02/17 04:11:05;;;;;;;94.38;31.73;;;0.30;99.90;;;;;;5011295;28;20044;-79
2023/02/17 04:13:33;;;;;;;92.75;30.58;;;0.30;99.90;;;;;;5014630;28;20045;-79
2023/02/17 04:16:02;;;;;;;102.28;31.10;;;0.30;99.90;;;;;;4986081;28;20396;-79
2023/02/17 04:18:31;;;;;;;103.32;32.45;;;0.20;99.90;;;;;;5016415;28;20584;-80
2023/02/17 04:20:58;;;;;;;98.32;32.35;;;0.20;99.90;;;;;;4997588;28;20041;-79
2023/02/17 04:23:26;;;;;;;93.10;30.52;;;0.20;99.90;;;;;;5012866;28;22468;-79
2023/02/17 04:25:53;;;;;;;91.50;30.17;;;0.20;99.90;;;;;;4995929;28;20041;-79
2023/02/17 04:28:21;;;;;;;96.13;31.75;;;0.20;99.90;;;;;;4987400;28;20040;-79
2023/02/17 04:30:49;;;;;;;85.68;29.33;;;0.20;99.90;;;;;;5013066;28;20052;-79
2023/02/17 04:33:17;;;;;;;91.57;32.30;;;0.20;99.90;;;;;;5012271;28;20048;-79
2023/02/17 04:35:46;;;;;;;94.82;32.40;;;0.20;99.90;;;;;;4995062;28;20053;-79
2023/02/17 04:38:13;;;;;;;103.13;33.47;;;0.10;99.90;;;;;;5005227;28;20049;-79
2023/02/17 04:40:40;;;;;;;91.22;31.05;;;0.10;99.90;;;;;;4989368;28;20059;-79
2023/02/17 04:43:08;;;;;;;100.65;31.63;;;0.10;99.90;;;;;;5007008;28;20061;-79
2023/02/17 04:45:36;;;;;;;103.30;32.97;;;0.10;99.90;;;;;;4995932;28;20076;-79
2023/02/17 04:48:03;;;;;;;106.13;34.00;;;0.10;99.90;;;;;;5021812;28;20407;-79
2023/02/17 04:50:30;;;;;;;101.43;32.33;;;0.10;99.90;;;;;;4990603;28;20049;-79
2023/02/17 04:52:57;;;;;;;101.30;32.47;;;0.10;99.90;;;;;;5005860;28;20141;-79
2023/02/17 04:55:24;;;;;;;103.97;33.22;;;0.10;99.90;;;;;;5010075;28;20057;-80
2023/02/17 04:57:51;;;;;;;116.15;33.53;;;0.10;99.90;;;;;;4992649;28;20053;-79
2023/02/17 05:00:19;;;;;;;102.75;32.35;;;0.10;99.90;;;;;;4970913;28;20676;-79
2023/02/17 05:02:46;;;;;;;103.72;33.25;;;0.10;99.90;;;;;;4966892;28;20052;-79
2023/02/17 05:05:17;;;;;;;106.95;35.63;;;0.10;99.90;;;;;;5004626;28;20927;-80
2023/02/17 05:07:45;;;;;;;104.45;33.42;;;0.10;99.90;;;;;;5012073;28;20053;-80
2023/02/17 05:10:14;;;;;;;103.60;32.92;;;0.10;99.90;;;;;;4971357;28;20550;-79
2023/02/17 05:12:42;;;;;;;113.60;34.38;;;0.10;99.90;;;;;;5008624;28;20516;-79
2023/02/17 05:15:10;;;;;;;115.95;35.00;;;0.10;99.90;;;;;;4986405;28;20049;-80
2023/02/17 05:17:38;;;;;;;111.72;34.22;;;0.10;99.90;;;;;;4974327;28;20075;-79
2023/02/17 05:20:06;;;;;;;107.05;31.58;;;0.20;99.90;;;;;;5005019;28;20045;-79
2023/02/17 05:22:33;;;;;;;101.93;32.05;;;0.20;99.90;;;;;;5010126;28;20050;-79
2023/02/17 05:25:00;;;;;;;113.63;38.00;;;0.20;99.90;;;;;;4991579;28;20393;-80
2023/02/17 05:27:27;;;;;;;102.75;36.90;;;0.20;99.90;;;;;;4960214;28;20387;-79
2023/02/17 05:29:54;;;;;;;93.35;31.88;;;0.20;99.90;;;;;;5002503;28;20056;-80
2023/02/17 05:32:22;;;;;;;99.53;32.67;;;0.30;99.90;;;;;;4990682;28;20191;-79
2023/02/17 05:34:49;;;;;;;99.20;32.35;;;0.30;99.90;;;;;;4985312;28;20049;-79
2023/02/17 05:37:16;;;;;;;100.30;32.60;;;0.30;99.90;;;;;;4973186;28;20773;-80
2023/02/17 05:39:43;;;;;;;88.10;30.92;;;0.30;99.90;;;;;;4987946;28;20701;-80
2023/02/17 05:42:10;;;;;;;94.10;32.40;;;0.30;99.90;;;;;;5005000;28;20500;-80
2023/02/17 05:44:37;;;;;;;99.30;33.53;;;0.30;99.90;;;;;;5053970;28;20052;-79
2023/02/17 05:47:04;;;;;;;88.95;30.67;;;0.40;99.90;;;;;;5052513;28;20053;-79
2023/02/17 05:49:32;;;;;;;90.25;30.65;;;0.40;99.90;;;;;;5050740;28;20416;-79
2023/02/17 05:51:59;;;;;;;93.18;31.17;;;0.40;99.90;;;;;;5051959;28;20046;-79
2023/02/17 05:54:26;;;;;;;87.70;29.50;;;0.50;99.90;;;;;;5024043;28;20501;-79
2023/02/17 05:56:53;;;;;;;91.45;27.85;;;0.40;99.90;;;;;;5026734;28;20131;-82
2023/02/17 05:59:20;;;;;;;82.68;29.02;;;0.40;99.90;;;;;;5056109;28;20050;-82
2023/02/17 06:01:47;;;;;;;87.07;28.92;;;0.50;99.90;;;;;;5019559;28;20042;-79
2023/02/17 06:04:14;;;;;;;89.50;30.55;;;0.50;99.90;;;;;;5037977;28;20076;-79
2023/02/17 06:06:41;;;;;;;89.15;30.95;;;0.50;99.90;;;;;;5038603;28;20052;-79
2023/02/17 06:09:08;;;;;;;75.50;26.90;;;0.50;99.90;;;;;;5047921;28;20512;-80
2023/02/17 06:11:35;;;;;;;76.72;27.40;;;0.50;99.90;;;;;;5004302;28;20571;-82
2023/02/17 06:14:03;;;;;;;70.40;25.48;;;0.50;99.90;;;;;;5050103;28;20518;-79
2023/02/17 06:16:30;;;;;;;81.82;27.33;;;0.60;99.90;;;;;;5035889;28;20424;-80
2023/02/17 06:18:58;;;;;;;73.82;26.85;;;0.60;99.90;;;;;;5033491;28;20041;-79
2023/02/17 06:21:26;;;;;;;68.82;25.88;;;0.60;99.90;;;;;;5018307;28;20042;-79
2023/02/17 06:23:53;;;;;;;66.82;23.77;;;0.60;99.90;;;;;;5037634;28;20056;-79
2023/02/17 06:26:20;;;;;;;74.55;24.42;;;0.70;99.90;;;;;;5016447;28;20099;-79
2023/02/17 06:28:48;;;;;;;69.28;23.67;;;0.70;99.90;;;;;;5036521;28;20485;-80
2023/02/17 06:31:15;;;;;;;71.63;23.90;;;0.70;99.90;;;;;;5015035;28;20056;-79
2023/02/17 06:33:42;;;;;;;68.97;23.38;;;0.80;99.90;;;;;;5033780;28;20065;-79
2023/02/17 06:36:09;;;;;;;74.40;26.23;;;0.80;99.90;;;;;;5045232;28;20049;-80
2023/02/17 06:38:37;;;;;;;89.40;30.55;;;0.90;99.90;;;;;;4994418;28;20053;-80
2023/02/17 06:41:04;;;;;;;79.47;28.88;;;0.90;99.90;;;;;;5045179;28;20042;-80
2023/02/17 06:43:31;;;;;;;83.30;28.77;;;1.00;99.90;;;;;;5034515;28;20080;-79
2023/02/17 06:45:58;;;;;;;78.65;28.85;;;1.00;99.90;;;;;;5049401;28;20046;-79
2023/02/17 06:48:25;;;;;;;84.45;28.27;;;1.00;99.90;;;;;;5009095;28;20088;-80
2023/02/17 06:50:52;;;;;;;78.85;29.63;;;0.90;99.90;;;;;;5025763;28;20563;-80
2023/02/17 06:53:19;;;;;;;115.90;39.50;;;1.10;99.90;;;;;;5032618;28;20079;-79
2023/02/17 06:55:47;;;;;;;95.40;33.20;;;1.20;99.90;;;;;;5005335;28;20049;-80
2023/02/17 06:58:14;;;;;;;94.50;32.15;;;1.10;99.90;;;;;;5015925;28;20372;-80
2023/02/17 07:00:41;;;;;;;106.10;41.28;;;1.20;99.90;;;;;;5032979;28;20057;-80
2023/02/17 07:03:08;;;;;;;103.68;41.78;;;0.20;99.90;;;;;;5012910;28;20133;-79
2023/02/17 07:05:36;;;;;;;89.18;33.88;;;1.30;99.90;;;;;;5032833;28;20053;-80
2023/02/17 07:08:04;;;;;;;82.00;31.98;;;1.30;99.90;;;;;;5017776;28;20070;-80
2023/02/17 07:10:31;;;;;;;86.43;31.33;;;1.40;99.90;;;;;;5017503;28;20060;-80
2023/02/17 07:12:58;;;;;;;86.00;31.88;;;1.40;99.90;;;;;;5013341;28;20645;-80
2023/02/17 07:15:26;;;;;;;84.25;31.58;;;1.50;99.90;;;;;;5018153;28;20075;-80
2023/02/17 07:17:56;;;;;;;93.15;31.48;;;1.60;99.90;;;;;;5051858;28;20045;-80
2023/02/17 07:20:23;;;;;;;86.30;32.13;;;1.40;99.90;;;;;;5056181;28;20041;-80
2023/02/17 07:22:51;;;;;;;93.90;34.88;;;1.60;99.90;;;;;;5016628;28;20053;-80
2023/02/17 07:25:18;;;;;;;106.85;36.72;;;1.80;99.90;;;;;;5049427;28;20033;-79
2023/02/17 07:27:45;;;;;;;95.07;35.67;;;1.80;99.90;;;;;;5048010;28;20051;-79
2023/02/17 07:30:12;;;;;;;108.90;39.35;;;1.90;99.90;;;;;;5017086;28;20045;-80
2023/02/17 07:32:40;;;;;;;93.22;37.45;;;1.90;99.90;;;;;;5001864;28;20132;-80
2023/02/17 07:35:07;;;;;;;98.15;37.70;;;2.00;99.90;;;;;;5038070;28;20103;-80
2023/02/17 07:37:34;;;;;;;107.97;38.08;;;2.00;99.90;;;;;;5037103;28;20069;-79
2023/02/17 07:40:03;;;;;;;98.35;34.78;;;2.00;99.90;;;;;;5041130;28;20069;-79
2023/02/17 07:42:30;;;;;;;87.25;32.50;;;2.20;99.90;;;;;;5011333;28;20401;-80
2023/02/17 07:44:57;;;;;;;90.45;33.20;;;2.10;99.90;;;;;;5042420;28;20082;-80
2023/02/17 07:47:24;;;;;;;93.97;34.65;;;2.10;99.90;;;;;;5036658;28;20055;-79
2023/02/17 07:49:51;;;;;;;97.63;35.70;;;2.20;99.90;;;;;;5050001;28;20041;-80
2023/02/17 07:52:19;;;;;;;95.15;34.25;;;2.30;99.90;;;;;;5047534;28;20048;-79
2023/02/17 07:54:46;;;;;;;99.00;35.65;;;2.30;99.90;;;;;;5041851;28;20051;-79
2023/02/17 07:57:13;;;;;;;102.97;35.33;;;2.40;99.90;;;;;;5063366;28;20042;-79
2023/02/17 07:59:40;;;;;;;96.70;34.78;;;2.50;99.90;;;;;;5048759;28;20045;-80
2023/02/17 08:02:10;;;;;;;93.32;33.70;;;2.50;99.90;;;;;;5041627;28;20033;-79
2023/02/17 08:04:37;;;;;;;95.07;35.15;;;2.60;99.90;;;;;;5034187;28;20074;-79
2023/02/17 08:07:04;;;;;;;82.40;29.90;;;2.60;99.90;;;;;;5040338;28;20053;-78
2023/02/17 08:15:07;;;;;;;85.85;33.75;;;2.80;99.90;;;;;;5060156;28;20127;-79
2023/02/17 08:17:34;;;;;;;95.03;32.13;;;2.90;99.90;;;;;;5040334;28;20040;-78
2023/02/17 08:20:03;;;;;;;92.53;33.72;;;3.00;99.90;;;;;;5046387;28;20394;-79
2023/02/17 08:22:35;;;;;;;93.97;34.75;;;3.00;99.90;;;;;;5058154;28;20583;-78
2023/02/17 08:25:04;;;;;;;98.80;35.80;;;3.10;99.90;;;;;;5010794;28;20166;-79
2023/02/17 08:27:32;;;;;;;95.97;35.65;;;3.10;99.90;;;;;;4993960;28;20056;-79
2023/02/17 08:29:59;;;;;;;101.38;36.20;;;3.10;99.90;;;;;;4993107;28;20183;-78
2023/02/17 08:32:26;;;;;;;105.97;39.42;;;3.10;99.90;;;;;;4997886;28;20061;-79
2023/02/17 08:34:57;;;;;;;156.25;54.17;;;3.20;99.90;;;;;;4997669;28;20186;-79
2023/02/17 08:37:24;;;;;;;160.15;54.42;;;3.20;99.90;;;;;;5011246;28;20057;-77
2023/02/17 08:39:51;;;;;;;214.65;74.10;;;3.20;99.90;;;;;;5030189;28;20421;-78
2023/02/17 08:42:19;;;;;;;121.90;42.80;;;3.40;99.90;;;;;;5004575;28;20231;-78
2023/02/17 08:44:46;;;;;;;104.72;42.80;;;3.90;99.90;;;;;;4987163;28;20058;-78
2023/02/17 08:47:14;;;;;;;95.38;34.97;;;4.20;99.90;;;;;;5021079;28;20048;-76
2023/02/17 08:49:41;;;;;;;93.50;37.72;;;4.30;99.90;;;;;;5018232;28;20263;-77
2023/02/17 08:52:08;;;;;;;106.00;38.03;;;4.20;99.90;;;;;;5020243;28;20250;-76
2023/02/17 08:54:36;;;;;;;92.57;37.25;;;4.20;99.90;;;;;;5015377;28;20055;-77
2023/02/17 08:57:03;;;;;;;87.20;34.40;;;4.30;99.90;;;;;;5000909;28;20037;-77
2023/02/17 08:59:31;;;;;;;92.75;35.63;;;4.40;99.90;;;;;;5023159;28;20048;-77
2023/02/17 09:01:58;;;;;;;90.75;36.05;;;4.40;99.90;;;;;;5021051;28;20072;-76
2023/02/17 09:04:25;;;;;;;86.07;33.35;;;4.50;99.90;;;;;;5002004;28;20052;-76
2023/02/17 09:06:57;;;;;;;78.68;33.50;;;4.60;99.90;;;;;;5034671;28;20037;-77
2023/02/17 09:09:28;;;;;;;90.95;32.92;;;4.50;99.90;;;;;;5015203;28;20059;-77
2023/02/17 09:11:57;;;;;;;81.18;33.10;;;4.50;99.90;;;;;;5017210;28;20793;-77
2023/02/17 09:14:24;;;;;;;82.80;34.08;;;4.60;99.90;;;;;;4999422;28;20756;-77
2023/02/17 09:16:53;;;;;;;80.55;32.85;;;4.60;99.90;;;;;;5002379;28;20107;-76
2023/02/17 09:19:20;;;;;;;82.97;31.33;;;4.70;99.90;;;;;;4987158;28;20090;-77
2023/02/17 09:21:48;;;;;;;77.00;30.77;;;4.80;99.90;;;;;;4981115;28;20111;-77
2023/02/17 09:24:16;;;;;;;77.03;32.58;;;4.80;99.90;;;;;;5019285;28;22392;-77
2023/02/17 09:26:44;;;;;;;66.93;29.15;;;4.90;99.90;;;;;;5017968;28;20223;-76
2023/02/17 09:29:11;;;;;;;81.72;31.50;;;5.10;99.90;;;;;;5001186;28;20691;-77
2023/02/17 09:31:38;;;;;;;74.18;31.15;;;5.10;99.90;;;;;;5018998;28;20400;-77
2023/02/17 09:34:05;;;;;;;79.30;32.92;;;5.10;99.90;;;;;;4993656;28;20691;-77
2023/02/17 09:36:37;;;;;;;76.30;30.27;;;5.10;99.90;;;;;;4999899;28;20048;-76
2023/02/17 09:39:04;;;;;;;71.78;29.58;;;5.20;99.90;;;;;;5014226;28;20045;-77
2023/02/17 09:41:46;;;;;;;77.45;31.67;;;5.50;99.90;;;;;;5016724;28;20084;-76
2023/02/17 09:44:24;;;;;;;72.37;32.03;;;5.70;99.90;;;;;;5016639;28;20525;-77
2023/02/17 09:47:04;;;;;;;75.93;28.85;;;5.90;99.90;;;;;;5000246;28;20289;-76
2023/02/17 09:49:43;;;;;;;74.75;30.05;;;5.90;99.90;;;;;;5003924;28;20102;-77
2023/02/17 09:52:28;;;;;;;68.47;30.15;;;6.00;99.90;;;;;;4989366;28;20041;-76
2023/02/17 09:55:34;;;;;;;79.88;34.90;;;6.10;99.90;;;;;;5000243;28;23017;-77
2023/02/17 09:58:41;;;;;;;62.03;26.90;;;6.10;99.90;;;;;;4979226;28;20060;-77
2023/02/17 10:01:16;;;;;;;68.00;29.17;;;6.10;99.90;;;;;;4969655;28;20060;-77
2023/02/17 10:03:49;;;;;;;65.63;30.42;;;6.10;99.90;;;;;;4992343;28;20158;-77
2023/02/17 10:06:23;;;;;;;;;;;6.20;99.90;;;;;;5026184;28;21499;-78
2023/02/17 10:09:29;;;;;;;59.80;27.77;;;6.30;99.90;;;;;;4996693;28;20137;-77
2023/02/17 10:12:12;;;;;;;65.03;27.95;;;6.30;99.90;;;;;;4958944;28;20061;-78
2023/02/17 10:14:48;;;;;;;64.63;27.65;;;6.30;99.90;;;;;;5017450;28;20056;-78
2023/02/17 10:17:32;;;;;;;66.68;27.88;;;6.30;99.90;;;;;;5014964;28;20048;-79
2023/02/17 10:20:04;;;;;;;61.83;26.33;;;6.30;99.90;;;;;;5000056;28;20041;-79
2023/02/17 10:22:32;;;;;;;68.20;28.00;;;6.30;99.90;;;;;;5018181;28;20127;-79
2023/02/17 10:25:02;;;;;;;58.38;26.98;;;6.20;99.90;;;;;;4994878;28;20051;-78
2023/02/17 10:27:45;;;;;;;59.35;25.48;;;6.20;99.90;;;;;;5017397;28;20052;-79
2023/02/17 10:30:18;;;;;;;65.55;27.02;;;6.10;99.90;;;;;;5018930;28;20706;-80
2023/02/17 10:33:08;;;;;;;60.08;25.48;;;6.10;99.90;;;;;;5029393;28;20502;-80
2023/02/17 10:35:51;;;;;;;58.78;25.60;;;6.20;99.90;;;;;;5018801;28;20051;-79
2023/02/17 10:38:52;;;;;;;64.53;26.92;;;6.30;99.90;;;;;;5006108;28;20053;-79
2023/02/17 10:41:24;;;;;;;62.72;27.05;;;6.30;99.90;;;;;;5003124;28;20198;-79
2023/02/17 10:43:52;;;;;;;58.17;26.00;;;6.40;99.90;;;;;;5002916;28;20065;-78
2023/02/17 10:46:28;;;;;;;59.75;26.30;;;6.40;99.90;;;;;;5033388;28;20048;-79
2023/02/17 10:48:57;;;;;;;60.17;26.67;;;6.40;99.90;;;;;;5027952;28;22371;-78
2023/02/17 10:51:28;;;;;;;65.20;26.23;;;6.50;99.90;;;;;;5003113;28;21061;-78
2023/02/17 10:54:42;;;;;;;58.60;26.02;;;6.50;99.90;;;;;;5007728;28;20056;-79
2023/02/17 10:57:12;;;;;;;60.80;24.63;;;6.60;99.90;;;;;;5018242;28;20059;-79
2023/02/17 10:59:41;;;;;;;63.00;25.80;;;6.60;99.90;;;;;;5014884;28;20045;-79
2023/02/17 11:02:19;;;;;;;58.63;23.73;;;6.70;99.90;;;;;;4997712;28;20493;-79
2023/02/17 11:04:50;;;;;;;57.33;25.50;;;6.80;99.90;;;;;;5001268;28;20041;-79
2023/02/17 11:07:25;;;;;;;64.00;24.30;;;6.90;99.90;;;;;;5005235;28;20048;-78
2023/02/17 11:09:58;;;;;;;56.90;24.92;;;7.00;99.90;;;;;;5024350;28;20627;-79
2023/02/17 11:12:33;;;;;;;55.78;24.17;;;7.10;99.90;;;;;;4996433;28;20044;-78
2023/02/17 11:15:03;;;;;;;61.60;26.60;;;7.10;99.90;;;;;;4997581;28;20119;-79
2023/02/17 11:17:37;;;;;;;54.38;24.60;;;7.10;99.90;;;;;;5003235;28;20614;-78
2023/02/17 11:20:28;;;;;;;58.30;24.58;;;7.20;99.90;;;;;;5036356;28;20879;-78
2023/02/17 11:23:13;;;;;;;61.70;25.48;;;7.00;99.90;;;;;;5016232;28;20563;-79
2023/02/17 11:25:42;;;;;;;60.38;26.38;;;7.10;99.90;;;;;;5029982;28;20048;-78
2023/02/17 11:28:13;;;;;;;60.85;26.83;;;7.20;99.90;;;;;;5001969;28;20044;-79
2023/02/17 11:30:49;;;;;;;64.65;27.27;;;6.80;99.90;;;;;;5001581;28;20052;-78
2023/02/17 11:33:30;;;;;;;65.93;28.38;;;7.30;99.90;;;;;;5028914;28;20115;-78
2023/02/17 11:35:59;;;;;;;59.13;26.80;;;7.40;99.90;;;;;;4995205;28;20056;-78
2023/02/17 11:38:32;;;;;;;67.20;28.55;;;8.30;99.90;;;;;;4990024;28;20057;-78
2023/02/17 11:41:03;;;;;;;61.30;26.10;;;7.40;99.90;;;;;;5014160;28;20049;-78
2023/02/17 11:43:31;;;;;;;64.18;27.13;;;7.60;99.90;;;;;;5010581;28;22615;-78
2023/02/17 11:46:10;;;;;;;56.97;26.98;;;7.30;99.90;;;;;;5009938;28;20052;-78
2023/02/17 11:49:11;;;;;;;62.55;27.48;;;7.50;99.90;;;;;;5011824;28;20061;-79
2023/02/17 11:51:39;;;;;;;64.30;28.63;;;6.90;99.90;;;;;;4994771;28;20044;-78
2023/02/17 11:54:30;;;;;;;63.17;28.40;;;7.10;99.90;;;;;;5012032;28;20567;-79
2023/02/17 11:56:57;;;;;;;64.32;28.00;;;7.70;99.90;;;;;;5008702;28;20087;-78
2023/02/17 11:59:54;;;;;;;65.30;28.95;;;7.90;99.90;;;;;;4990991;28;20060;-78
2023/02/17 12:02:48;;;;;;;64.68;28.30;;;7.80;99.90;;;;;;5005572;28;20097;-77
2023/02/17 12:05:26;;;;;;;68.13;29.65;;;7.90;99.90;;;;;;4986086;28;20056;-77
2023/02/17 12:08:16;;;;;;;102.05;45.53;;;9.20;99.90;;;;;;4992005;28;20387;-78
2023/02/17 12:11:17;;;;;;;133.10;55.05;;;8.20;99.90;;;;;;4976344;28;20083;-77
2023/02/17 12:14:08;;;;;;;156.38;69.38;;;8.20;99.90;;;;;;5000417;28;20048;-79
2023/02/17 12:16:46;;;;;;;176.00;74.95;;;8.10;99.90;;;;;;4995274;28;20053;-77
2023/02/17 12:19:29;;;;;;;86.43;37.67;;;8.30;99.90;;;;;;4980623;28;20044;-79
2023/02/17 12:22:01;;;;;;;;;;;8.30;99.90;;;;;;4997281;28;20704;-80
2023/02/17 12:24:42;;;;;;;74.70;32.63;;;8.60;99.90;;;;;;5014448;28;19981;-79
2023/02/17 12:27:34;;;;;;;64.22;30.40;;;8.40;99.90;;;;;;5008939;28;20343;-78
2023/02/17 12:30:26;;;;;;;69.43;28.25;;;8.40;99.90;;;;;;4969325;28;20048;-78
2023/02/17 12:33:14;;;;;;;72.15;30.88;;;8.50;99.90;;;;;;5013846;28;20388;-77
2023/02/17 12:35:56;;;;;;;100.28;39.72;;;8.60;99.90;;;;;;5014915;28;20052;-77
2023/02/17 12:38:29;;;;;;;81.28;31.77;;;8.80;99.90;;;;;;5024076;28;20399;-77
2023/02/17 12:41:08;;;;;;;94.18;43.10;;;8.60;99.90;;;;;;5019259;28;20052;-76
2023/02/17 12:43:57;;;;;;;77.03;34.50;;;8.80;99.90;;;;;;4995193;28;20508;-77
2023/02/17 12:46:35;;;;;;;84.80;39.42;;;8.80;99.90;;;;;;5010852;28;20496;-77
2023/02/17 12:49:16;;;;;;;76.50;31.92;;;8.80;99.90;;;;;;5024093;28;20076;-76
2023/02/17 12:51:50;;;;;;;77.07;32.45;;;8.30;99.90;;;;;;5031442;28;20057;-77
2023/02/17 12:54:41;;;;;;;80.90;35.08;;;9.00;99.90;;;;;;5008181;28;20049;-76
2023/02/17 12:57:17;;;;;;;73.88;28.25;;;8.90;99.90;;;;;;4997802;28;20712;-78
2023/02/17 12:59:52;;;;;;;114.30;42.70;;;9.00;99.90;;;;;;5036334;28;20048;-79
2023/02/17 13:02:22;;;;;;;63.75;28.77;;;9.20;99.90;;;;;;4995448;28;20053;-79